createdAt,value
2022-10-19T00:01:46.383Z,1.65
2022-10-19T00:04:13.949Z,1.27
2022-10-19T00:06:41.229Z,1.10
2022-10-19T00:09:12.534Z,1.40
2022-10-19T00:12:04.593Z,1.55
2022-10-19T00:14:34.739Z,1.00
2022-10-19T00:17:02.172Z,1.20
2022-10-19T00:19:31.598Z,1.70
2022-10-19T00:21:58.935Z,1.67
2022-10-19T00:24:28.287Z,1.60
2022-10-19T00:26:55.501Z,1.10
2022-10-19T00:29:23.009Z,1.70
2022-10-19T00:31:52.548Z,1.25
2022-10-19T00:34:20.024Z,1.23
2022-10-19T00:36:48.647Z,1.85
2022-10-19T00:39:19.112Z,1.20
2022-10-19T00:41:51.279Z,1.23
2022-10-19T00:44:18.531Z,1.20
2022-10-19T00:46:51.869Z,1.63
2022-10-19T00:49:31.463Z,1.30
2022-10-19T00:52:03.221Z,1.55
2022-10-19T00:54:38.669Z,1.95
2022-10-19T00:57:07.764Z,1.63
2022-10-19T00:59:36.310Z,1.02
2022-10-19T01:02:05.950Z,2.13
2022-10-19T01:04:39.778Z,1.73
2022-10-19T01:07:10.776Z,2.25
2022-10-19T01:09:38.529Z,1.58
2022-10-19T01:12:14.197Z,1.90
2022-10-19T01:15:01.781Z,1.70
2022-10-19T01:17:47.401Z,1.40
2022-10-19T01:20:50.504Z,1.10
2022-10-19T01:23:47.240Z,1.27
2022-10-19T01:26:45.228Z,1.60
2022-10-19T01:29:37.859Z,1.27
2022-10-19T01:32:14.360Z,2.30
2022-10-19T01:34:54.996Z,1.75
2022-10-19T01:37:49.134Z,1.83
2022-10-19T01:40:46.665Z,2.28
2022-10-19T01:43:34.881Z,1.00
2022-10-19T01:46:13.352Z,1.10
2022-10-19T01:48:45.242Z,1.25
2022-10-19T01:51:20.397Z,2.37
2022-10-19T01:53:51.244Z,1.52
2022-10-19T01:56:33.746Z,1.48
2022-10-19T01:59:07.205Z,1.05
2022-10-19T02:01:40.110Z,1.70
2022-10-19T02:04:14.205Z,1.52
2022-10-19T02:06:44.850Z,1.42
2022-10-19T02:09:18.904Z,1.65
2022-10-19T02:11:57.366Z,1.85
2022-10-19T02:14:33.702Z,1.52
2022-10-19T02:17:13.127Z,2.15
2022-10-19T02:19:43.209Z,2.10
2022-10-19T02:22:15.834Z,2.40
2022-10-19T02:24:43.195Z,2.22
2022-10-19T02:27:13.446Z,2.85
2022-10-19T02:29:43.387Z,2.10
2022-10-19T02:32:14.052Z,2.05
2022-10-19T02:34:44.245Z,1.75
2022-10-19T02:37:11.982Z,1.67
2022-10-19T02:39:40.939Z,1.38
2022-10-19T02:42:20.203Z,1.98
2022-10-19T02:44:58.542Z,1.52
2022-10-19T02:47:31.186Z,2.10
2022-10-19T02:49:58.741Z,2.35
2022-10-19T02:52:27.261Z,2.05
2022-10-19T02:54:57.462Z,2.42
2022-10-19T02:57:28.642Z,1.50
2022-10-19T02:59:55.755Z,1.60
2022-10-19T03:02:22.987Z,1.80
2022-10-19T03:04:53.310Z,2.22
2022-10-19T03:07:24.351Z,1.52
2022-10-19T03:09:54.610Z,1.52
2022-10-19T03:12:21.906Z,1.52
2022-10-19T03:14:49.162Z,1.55
2022-10-19T03:17:16.719Z,1.65
2022-10-19T03:19:44.228Z,1.38
2022-10-19T03:22:13.831Z,1.10
2022-10-19T03:24:44.825Z,2.22
2022-10-19T03:27:13.350Z,1.73
2022-10-19T03:29:43.741Z,2.15
2022-10-19T03:32:11.346Z,2.55
2022-10-19T03:34:38.859Z,2.30
2022-10-19T03:37:06.987Z,1.90
2022-10-19T03:39:40.025Z,1.70
2022-10-19T03:42:07.556Z,1.85
2022-10-19T03:44:34.782Z,1.60
2022-10-19T03:47:02.032Z,1.85
2022-10-19T03:49:29.610Z,1.80
2022-10-19T03:51:57.099Z,1.48
2022-10-19T03:54:27.889Z,2.42
2022-10-19T03:57:03.809Z,2.30
2022-10-19T03:59:32.148Z,1.23
2022-10-19T04:01:59.582Z,1.83
2022-10-19T04:04:27.385Z,2.05
2022-10-19T04:06:54.730Z,1.85
2022-10-19T04:09:23.012Z,1.90
2022-10-19T04:11:50.923Z,2.13
2022-10-19T04:14:32.056Z,2.08
2022-10-19T04:17:08.661Z,1.60
2022-10-19T04:19:41.772Z,1.60
2022-10-19T04:22:12.597Z,1.67
2022-10-19T04:24:40.358Z,1.92
2022-10-19T04:27:09.699Z,1.70
2022-10-19T04:29:37.038Z,1.77
2022-10-19T04:32:04.873Z,1.95
2022-10-19T04:34:35.185Z,1.83
2022-10-19T04:39:33.566Z,1.70
2022-10-19T04:42:01.047Z,1.52
2022-10-19T04:44:28.526Z,1.60
2022-10-19T04:46:59.003Z,1.92
2022-10-19T04:49:29.557Z,1.50
2022-10-19T04:51:56.709Z,1.45
2022-10-19T04:54:28.116Z,3.17
2022-10-19T04:56:56.067Z,2.08
2022-10-19T04:59:23.336Z,1.52
2022-10-19T05:01:50.833Z,1.75
2022-10-19T05:04:17.876Z,1.67
2022-10-19T05:06:46.715Z,1.65
2022-10-19T05:09:14.006Z,2.42
2022-10-19T05:11:42.509Z,2.58
2022-10-19T05:14:10.168Z,1.70
2022-10-19T05:16:37.330Z,3.05
2022-10-19T05:19:04.467Z,1.90
2022-10-19T05:21:32.003Z,2.67
2022-10-19T05:24:35.008Z,2.15
2022-10-19T05:26:53.129Z,1.60
2022-10-19T05:29:25.022Z,2.00
2022-10-19T05:31:54.287Z,1.17
2022-10-19T05:34:24.350Z,1.88
2022-10-19T05:36:51.450Z,1.90
2022-10-19T05:39:19.074Z,2.42
2022-10-19T05:41:47.881Z,2.08
2022-10-19T05:44:23.072Z,2.13
2022-10-19T05:46:51.970Z,1.63
2022-10-19T05:49:20.719Z,1.77
2022-10-19T05:51:48.509Z,1.67
2022-10-19T05:54:17.444Z,1.73
2022-10-19T05:56:45.127Z,1.52
2022-10-19T05:59:18.758Z,2.08
2022-10-19T06:01:48.072Z,1.95
2022-10-19T06:06:51.560Z,2.30
2022-10-19T06:09:19.323Z,2.80
2022-10-19T06:11:48.295Z,1.55
2022-10-19T06:14:16.734Z,2.95
2022-10-19T06:16:46.204Z,2.42
2022-10-19T06:19:14.944Z,2.42
2022-10-19T06:21:45.860Z,2.13
2022-10-19T06:24:16.153Z,2.17
2022-10-19T06:26:43.440Z,2.33
2022-10-19T06:29:13.185Z,1.75
2022-10-19T06:31:43.175Z,2.25
2022-10-19T06:34:10.592Z,2.03
2022-10-19T06:36:38.006Z,3.25
2022-10-19T06:39:05.317Z,2.33
2022-10-19T06:41:32.821Z,1.80
2022-10-19T06:44:21.386Z,1.92
2022-10-19T06:46:48.603Z,2.17
2022-10-19T06:49:16.029Z,1.92
2022-10-19T06:51:44.597Z,1.95
2022-10-19T06:54:15.731Z,1.90
2022-10-19T06:59:18.128Z,1.55
2022-10-19T07:01:50.461Z,1.55
2022-10-19T07:04:23.241Z,2.10
2022-10-19T07:09:19.866Z,1.65
2022-10-19T07:11:49.094Z,1.58
2022-10-19T07:14:17.234Z,1.92
2022-10-19T07:16:44.476Z,1.83
2022-10-19T07:19:15.233Z,2.20
2022-10-19T07:21:43.881Z,1.92
2022-10-19T07:24:11.654Z,2.30
2022-10-19T07:26:41.729Z,1.60
2022-10-19T07:29:12.512Z,1.33
2022-10-19T07:31:44.203Z,1.73
2022-10-19T07:34:13.482Z,2.42
2022-10-19T07:36:49.740Z,2.50
2022-10-19T07:39:18.225Z,1.77
2022-10-19T07:41:48.358Z,2.10
2022-10-19T07:44:17.306Z,2.58
2022-10-19T07:46:46.796Z,2.17
2022-10-19T07:49:19.091Z,2.20
2022-10-19T07:51:54.418Z,2.25
2022-10-19T07:54:25.076Z,1.63
2022-10-19T07:56:52.620Z,1.85
2022-10-19T07:59:24.139Z,2.13
2022-10-19T08:01:54.725Z,2.13
2022-10-19T08:07:12.271Z,2.15
2022-10-19T08:09:53.135Z,2.15
2022-10-19T08:12:24.261Z,2.33
2022-10-19T08:14:51.637Z,1.52
2022-10-19T08:17:20.893Z,1.70
2022-10-19T08:19:51.169Z,1.70
2022-10-19T08:22:22.235Z,1.80
2022-10-19T08:24:55.489Z,1.65
2022-10-19T08:27:24.691Z,1.88
2022-10-19T08:29:52.048Z,1.33
2022-10-19T08:32:19.701Z,1.60
2022-10-19T08:34:50.859Z,1.50
2022-10-19T08:37:26.351Z,1.88
2022-10-19T08:40:17.966Z,1.70
2022-10-19T08:43:21.401Z,1.65
2022-10-19T08:48:37.126Z,1.48
2022-10-19T08:51:08.145Z,1.60
2022-10-19T08:53:57.261Z,1.60
2022-10-19T08:56:50.988Z,1.70
2022-10-19T08:59:34.030Z,2.07
2022-10-19T09:02:39.820Z,2.03
2022-10-19T09:05:33.601Z,1.83
2022-10-19T09:08:01.527Z,1.90
2022-10-19T09:10:35.669Z,1.55
2022-10-19T09:13:16.882Z,1.67
2022-10-19T09:15:52.705Z,1.70
2022-10-19T09:18:25.927Z,1.70
2022-10-19T09:21:09.997Z,1.67
2022-10-19T09:23:45.481Z,2.40
2022-10-19T09:26:18.390Z,1.48
2022-10-19T09:28:59.587Z,2.10
2022-10-19T09:31:40.964Z,1.67
2022-10-19T09:34:19.391Z,1.92
2022-10-19T09:36:55.889Z,2.55
2022-10-19T09:39:27.107Z,2.10
2022-10-19T09:42:01.429Z,2.67
2022-10-19T09:44:31.556Z,1.90
2022-10-19T09:47:28.424Z,1.67
2022-10-19T09:50:17.935Z,2.97
2022-10-19T09:52:53.598Z,2.85
2022-10-19T09:55:29.855Z,3.30
2022-10-19T09:58:05.986Z,1.52
2022-10-19T10:00:40.596Z,1.52
2022-10-19T10:03:08.689Z,1.85
2022-10-19T10:05:40.314Z,1.25
2022-10-19T10:08:17.053Z,1.83
2022-10-19T10:10:47.705Z,2.47
2022-10-19T10:13:21.240Z,2.22
2022-10-19T10:15:54.677Z,2.08
2022-10-19T10:18:24.839Z,1.38
2022-10-19T10:21:12.505Z,1.95
2022-10-19T10:23:40.453Z,1.40
2022-10-19T10:26:20.332Z,1.50
2022-10-19T10:28:50.702Z,1.33
2022-10-19T10:31:27.049Z,1.50
2022-10-19T10:34:10.928Z,1.88
2022-10-19T10:36:51.650Z,1.40
2022-10-19T10:39:28.586Z,2.15
2022-10-19T10:42:05.813Z,1.75
2022-10-19T10:44:36.635Z,1.40
2022-10-19T10:47:12.141Z,1.80
2022-10-19T10:49:43.132Z,1.55
2022-10-19T10:52:12.153Z,1.95
2022-10-19T10:54:39.798Z,1.63
2022-10-19T10:57:18.649Z,2.25
2022-10-19T11:00:12.255Z,1.55
2022-10-19T11:03:02.360Z,2.22
2022-10-19T11:08:23.271Z,1.30
2022-10-19T11:11:08.213Z,1.70
2022-10-19T11:14:15.335Z,1.50
2022-10-19T11:16:45.304Z,1.65
2022-10-19T11:19:19.575Z,2.38
2022-10-19T11:21:46.839Z,2.63
2022-10-19T11:27:28.306Z,1.48
2022-10-19T11:30:05.092Z,1.92
2022-10-19T11:32:46.171Z,1.30
2022-10-19T11:35:29.990Z,1.38
2022-10-19T11:38:20.136Z,1.40
2022-10-19T11:41:17.877Z,1.38
2022-10-19T11:44:04.101Z,1.98
2022-10-19T11:46:40.451Z,1.75
2022-10-19T11:49:26.860Z,2.00
2022-10-19T11:52:22.480Z,1.73
2022-10-19T11:55:14.232Z,1.60
2022-10-19T11:57:52.745Z,2.28
2022-10-19T12:00:38.319Z,2.30
2022-10-19T12:03:10.494Z,2.20
2022-10-19T12:05:59.103Z,2.30
2022-10-19T12:08:40.732Z,1.95
2022-10-19T12:11:28.621Z,2.03
2022-10-19T12:14:11.764Z,1.80
2022-10-19T12:16:53.569Z,1.52
2022-10-19T12:19:32.567Z,1.80
2022-10-19T12:22:02.818Z,1.58
2022-10-19T12:24:32.887Z,1.40
2022-10-19T12:27:11.319Z,1.40
2022-10-19T12:29:42.883Z,1.65
2022-10-19T12:32:14.928Z,1.33
2022-10-19T12:34:55.531Z,1.83
2022-10-19T12:37:33.993Z,1.63
2022-10-19T12:40:17.368Z,1.42
2022-10-19T12:43:13.145Z,1.50
2022-10-19T12:45:55.916Z,1.33
2022-10-19T12:50:57.218Z,1.70
2022-10-19T12:53:49.287Z,1.77
2022-10-19T12:56:26.919Z,1.40
2022-10-19T12:59:04.245Z,1.48
2022-10-19T13:01:34.541Z,1.50
2022-10-19T13:04:25.098Z,1.42
2022-10-19T13:06:58.508Z,1.90
2022-10-19T13:09:39.815Z,1.95
2022-10-19T13:12:19.857Z,1.65
2022-10-19T13:14:52.183Z,2.03
2022-10-19T13:17:35.341Z,1.48
2022-10-19T13:20:14.993Z,1.40
2022-10-19T13:22:50.772Z,2.33
2022-10-19T13:25:30.386Z,1.50
2022-10-19T13:28:07.093Z,1.25
2022-10-19T13:30:37.471Z,1.52
2022-10-19T13:33:31.972Z,1.50
2022-10-19T13:35:59.188Z,1.90
2022-10-19T13:38:37.246Z,1.30
2022-10-19T13:41:10.281Z,1.52
2022-10-19T13:44:04.727Z,1.38
2022-10-19T13:46:32.042Z,1.45
2022-10-19T13:49:02.665Z,1.55
2022-10-19T13:52:01.834Z,1.95
2022-10-19T13:55:07.952Z,1.95
2022-10-19T13:58:06.148Z,1.73
2022-10-19T14:01:07.205Z,2.15
2022-10-19T14:04:05.758Z,1.88
2022-10-19T14:06:49.077Z,1.55
2022-10-19T14:09:20.785Z,2.42
2022-10-19T14:11:54.148Z,1.98
2022-10-19T14:14:25.468Z,2.83
2022-10-19T14:17:03.187Z,1.60
2022-10-19T14:20:10.841Z,2.10
2022-10-19T14:23:23.149Z,1.40
2022-10-19T14:26:02.651Z,2.15
2022-10-19T14:28:31.808Z,1.75
2022-10-19T14:31:11.883Z,1.63
2022-10-19T14:33:46.169Z,2.03
2022-10-19T14:36:23.625Z,1.88
2022-10-19T14:38:55.561Z,1.13
2022-10-19T14:41:29.419Z,1.77
2022-10-19T14:44:00.171Z,1.77
2022-10-19T14:46:31.761Z,2.25
2022-10-19T14:49:06.237Z,1.98
2022-10-19T14:51:47.531Z,1.83
2022-10-19T14:54:31.204Z,1.88
2022-10-19T14:57:31.036Z,2.38
2022-10-19T15:00:05.408Z,1.80
2022-10-19T15:02:40.080Z,2.40
2022-10-19T15:07:55.298Z,1.75
2022-10-19T15:10:44.300Z,1.55
2022-10-19T15:13:40.767Z,1.80
2022-10-19T15:16:44.743Z,1.60
2022-10-19T15:19:38.980Z,2.25
2022-10-19T15:22:21.969Z,1.45
2022-10-19T15:24:56.046Z,1.30
2022-10-19T15:27:34.538Z,1.90
2022-10-19T15:30:25.137Z,1.80
2022-10-19T15:33:08.308Z,1.65
2022-10-19T15:35:40.513Z,2.15
2022-10-19T15:38:27.813Z,2.28
2022-10-19T15:41:01.353Z,1.73
2022-10-19T15:43:34.587Z,2.28
2022-10-19T15:46:12.397Z,1.17
2022-10-19T15:48:44.631Z,1.23
2022-10-19T15:51:24.181Z,1.58
2022-10-19T15:53:53.390Z,1.88
2022-10-19T15:56:24.199Z,2.55
2022-10-19T15:58:56.976Z,1.77
2022-10-19T16:01:30.157Z,2.03
2022-10-19T16:03:58.510Z,2.15
2022-10-19T16:06:31.021Z,2.40
2022-10-19T16:11:30.272Z,2.10
2022-10-19T16:13:58.192Z,1.58
2022-10-19T16:16:31.899Z,2.28
2022-10-19T16:19:00.236Z,2.10
2022-10-19T16:21:34.021Z,1.88
2022-10-19T16:24:01.453Z,1.58
2022-10-19T16:26:29.309Z,1.60
2022-10-19T16:28:56.990Z,2.00
2022-10-19T16:31:24.921Z,2.15
2022-10-19T16:33:52.410Z,1.98
2022-10-19T16:36:20.959Z,2.45
2022-10-19T16:38:49.545Z,2.40
2022-10-19T16:41:18.379Z,2.03
2022-10-19T16:43:45.592Z,2.40
2022-10-19T16:46:15.845Z,2.15
2022-10-19T16:48:43.750Z,2.25
2022-10-19T16:51:50.914Z,2.08
2022-10-19T16:54:20.823Z,2.30
2022-10-19T16:56:49.194Z,2.05
2022-10-19T16:59:18.882Z,2.78
2022-10-19T17:01:47.106Z,2.80
2022-10-19T17:04:20.483Z,2.72
2022-10-19T17:06:57.696Z,2.80
2022-10-19T17:09:42.107Z,2.90
2022-10-19T17:12:10.751Z,2.92
2022-10-19T17:14:41.595Z,3.10
2022-10-19T17:17:11.771Z,3.08
2022-10-19T17:19:39.846Z,2.95
2022-10-19T17:22:18.763Z,3.20
2022-10-19T17:24:47.653Z,3.83
2022-10-19T17:27:16.723Z,3.60
2022-10-19T17:29:44.329Z,3.60
2022-10-19T17:32:11.752Z,3.88
2022-10-19T17:34:46.636Z,3.72
2022-10-19T17:37:32.550Z,3.42
2022-10-19T17:40:13.359Z,3.35
2022-10-19T17:42:48.666Z,4.55
2022-10-19T17:45:32.837Z,4.65
2022-10-19T17:48:21.116Z,4.25
2022-10-19T17:51:07.453Z,4.75
2022-10-19T17:53:43.950Z,5.10
2022-10-19T17:56:28.415Z,4.93
2022-10-19T17:59:03.559Z,5.18
2022-10-19T18:01:31.019Z,7.70
2022-10-19T18:04:04.562Z,6.57
2022-10-19T18:06:39.539Z,5.82
2022-10-19T18:09:10.377Z,6.05
2022-10-19T18:12:05.060Z,6.40
2022-10-19T18:15:04.138Z,6.75
2022-10-19T18:17:31.910Z,7.43
2022-10-19T18:21:09.053Z,7.38
2022-10-19T18:23:15.580Z,7.20
2022-10-19T18:26:05.369Z,7.53
2022-10-19T18:28:37.047Z,7.07
2022-10-19T18:31:24.194Z,8.23
2022-10-19T18:34:26.402Z,7.10
2022-10-19T18:36:54.794Z,6.80
2022-10-19T18:39:30.803Z,7.75
2022-10-19T18:42:00.748Z,7.78
2022-10-19T18:44:33.513Z,7.45
2022-10-19T18:47:34.556Z,7.95
2022-10-19T18:50:13.547Z,8.10
2022-10-19T18:56:12.616Z,8.00
2022-10-19T18:58:41.887Z,7.32
2022-10-19T19:03:26.093Z,7.55
2022-10-19T19:04:54.853Z,8.02
2022-10-19T19:08:03.362Z,7.30
2022-10-19T19:10:43.176Z,8.38
2022-10-19T19:13:10.604Z,7.72
2022-10-19T19:15:38.081Z,7.63
2022-10-19T19:18:07.555Z,7.85
2022-10-19T19:20:34.968Z,7.05
2022-10-19T19:23:02.136Z,7.78
2022-10-19T19:25:32.455Z,6.88
2022-10-19T19:28:05.699Z,7.03
2022-10-19T19:30:37.504Z,7.40
2022-10-19T19:33:23.724Z,6.25
2022-10-19T19:35:52.396Z,6.25
2022-10-19T19:38:19.881Z,6.32
2022-10-19T19:40:47.342Z,6.30
2022-10-19T19:43:16.125Z,6.75
2022-10-19T19:45:43.632Z,5.82
2022-10-19T19:48:11.503Z,6.63
2022-10-19T19:50:38.704Z,5.82
2022-10-19T19:53:06.068Z,6.68
2022-10-19T19:55:38.180Z,5.88
2022-10-19T19:58:06.317Z,5.63
2022-10-19T20:00:33.759Z,5.30
2022-10-19T20:03:00.844Z,6.03
2022-10-19T20:05:28.519Z,5.30
2022-10-19T20:07:55.724Z,5.47
2022-10-19T20:10:23.253Z,4.93
2022-10-19T20:12:50.498Z,5.18
2022-10-19T20:15:18.758Z,5.78
2022-10-19T20:17:46.195Z,5.40
2022-10-19T20:20:14.838Z,4.93
2022-10-19T20:22:46.664Z,4.70
2022-10-19T20:25:14.485Z,5.00
2022-10-19T20:27:42.032Z,5.15
2022-10-19T20:30:09.932Z,5.25
2022-10-19T20:32:39.807Z,5.22
2022-10-19T20:35:20.464Z,4.38
2022-10-19T20:38:37.551Z,4.57
2022-10-19T20:40:40.927Z,5.50
2022-10-19T20:43:08.262Z,4.68
2022-10-19T20:45:35.657Z,5.40
2022-10-19T20:48:02.783Z,4.63
2022-10-19T20:50:29.982Z,4.72
2022-10-19T20:52:57.056Z,4.70
2022-10-19T20:55:26.105Z,5.43
2022-10-19T20:57:53.650Z,5.20
2022-10-19T21:00:21.077Z,5.40
2022-10-19T21:02:48.157Z,4.50
2022-10-19T21:05:17.550Z,4.70
2022-10-19T21:07:45.050Z,4.60
2022-10-19T21:10:13.595Z,4.38
2022-10-19T21:12:40.858Z,4.60
2022-10-19T21:15:08.509Z,4.88
2022-10-19T21:17:41.748Z,4.60
2022-10-19T21:20:11.738Z,4.35
2022-10-19T21:22:42.498Z,4.35
2022-10-19T21:25:12.787Z,5.38
2022-10-19T21:27:47.310Z,4.28
2022-10-19T21:30:17.855Z,4.63
2022-10-19T21:32:47.580Z,4.50
2022-10-19T21:35:19.749Z,4.50
2022-10-19T21:37:46.925Z,4.65
2022-10-19T21:40:16.488Z,4.93
2022-10-19T21:42:46.928Z,4.13
2022-10-19T21:45:30.802Z,4.40
2022-10-19T21:47:59.084Z,4.95
2022-10-19T21:50:27.321Z,4.18
2022-10-19T21:52:54.719Z,5.07
2022-10-19T21:55:22.106Z,5.13
2022-10-19T21:57:49.339Z,4.88
2022-10-19T22:00:16.540Z,4.00
2022-10-19T22:02:44.478Z,4.15
2022-10-19T22:05:12.010Z,5.13
2022-10-19T22:07:39.439Z,5.13
2022-10-19T22:10:09.761Z,5.57
2022-10-19T22:12:37.408Z,4.90
2022-10-19T22:15:05.491Z,5.03
2022-10-19T22:17:35.202Z,5.82
2022-10-19T22:20:02.579Z,6.15
2022-10-19T22:22:30.462Z,6.15
2022-10-19T22:24:59.058Z,5.78
2022-10-19T22:27:26.265Z,6.75
2022-10-19T22:29:53.699Z,6.10
2022-10-19T22:32:21.416Z,5.80
2022-10-19T22:34:48.862Z,5.88
2022-10-19T22:37:16.294Z,6.57
2022-10-19T22:39:46.213Z,5.95
2022-10-19T22:43:10.662Z,6.60
2022-10-19T22:45:56.098Z,6.40
2022-10-19T22:48:23.453Z,6.00
2022-10-19T22:51:00.619Z,6.38
2022-10-19T22:53:27.931Z,5.82
2022-10-19T22:55:55.439Z,5.72
2022-10-19T22:58:25.122Z,5.80
2022-10-19T23:01:13.016Z,5.78
2022-10-19T23:03:41.122Z,6.22
2022-10-19T23:06:13.887Z,5.10
2022-10-19T23:08:41.391Z,6.18
2022-10-19T23:11:08.449Z,6.43
2022-10-19T23:13:36.027Z,5.95
2022-10-19T23:16:03.589Z,5.93
2022-10-19T23:18:32.073Z,5.18
2022-10-19T23:21:02.185Z,6.25
2022-10-19T23:23:30.877Z,6.13
2022-10-19T23:26:07.378Z,5.90
2022-10-19T23:28:36.748Z,6.25
2022-10-19T23:31:16.699Z,5.57
2022-10-19T23:33:44.607Z,6.25
2022-10-19T23:36:14.480Z,6.55
2022-10-19T23:38:43.136Z,6.72
2022-10-19T23:41:10.844Z,6.50
2022-10-19T23:43:38.153Z,6.57
2022-10-19T23:46:05.777Z,7.05
2022-10-19T23:48:35.790Z,7.78
2022-10-19T23:51:06.554Z,7.93
2022-10-19T23:53:39.928Z,7.22
2022-10-19T23:56:23.229Z,6.88
2022-10-19T23:58:51.687Z,7.65
